Time;durP1;ratioP1;P1;durP2;ratioP2;P2;SDS_P1;SDS_P2;PMS_P1;PMS_P2;Temp;Humidity;BMP_temperature;BMP_pressure;BME280_temperature;BME280_humidity;BME280_pressure;Samples;Min_cycle;Max_cycle;Signal;HPM_P1;HPM_P2
2022/05/17 00:01:50;;;;;;;;;;;16.30;89.90;;;;;;5001157;28;19917;-74
2022/05/17 00:04:16;;;;;;;;;;;16.10;90.00;;;;;;5005502;28;19960;-74
2022/05/17 00:06:41;;;;;;;;;;;16.10;90.30;;;;;;5001611;28;20803;-73
2022/05/17 00:09:07;;;;;;;;;;;16.30;90.00;;;;;;5003253;28;20051;-73
2022/05/17 00:11:32;;;;;;;;;;;16.20;89.60;;;;;;5003163;28;19913;-73
2022/05/17 00:13:58;;;;;;;;;;;16.10;89.90;;;;;;5005629;28;20043;-74
2022/05/17 00:16:24;;;;;;;;;;;16.20;89.90;;;;;;4988095;28;20420;-74
2022/05/17 00:18:50;;;;;;;;;;;16.10;90.00;;;;;;5004295;28;19913;-74
2022/05/17 00:21:15;;;;;;;;;;;16.10;89.90;;;;;;5009916;28;19913;-74
2022/05/17 00:23:41;;;;;;;;;;;16.10;89.90;;;;;;5005553;28;19933;-74
2022/05/17 00:26:07;;;;;;;;;;;16.00;90.10;;;;;;5000418;28;19914;-74
2022/05/17 00:28:32;;;;;;;;;;;16.00;90.20;;;;;;5003778;28;19913;-74
2022/05/17 00:30:58;;;;;;;;;;;16.00;90.20;;;;;;5004233;28;20060;-74
2022/05/17 00:33:24;;;;;;;;;;;15.90;90.30;;;;;;5001234;28;19921;-74
2022/05/17 00:35:49;;;;;;;;;;;16.00;90.20;;;;;;4998588;28;20007;-74
2022/05/17 00:38:15;;;;;;;;;;;15.90;90.00;;;;;;5004665;28;20305;-74
2022/05/17 00:40:41;;;;;;;;;;;15.80;90.20;;;;;;5001893;28;19921;-74
2022/05/17 00:43:07;;;;;;;;;;;15.90;90.20;;;;;;4999073;28;19917;-74
2022/05/17 00:45:33;;;;;;;;;;;15.80;90.20;;;;;;5002171;28;19920;-74
2022/05/17 00:48:04;;;;;;;;;;;15.90;90.30;;;;;;5000807;28;19921;-74
2022/05/17 00:50:32;;;;;;;;;;;15.90;89.90;;;;;;5004651;28;20350;-73
2022/05/17 00:53:00;;;;;;;;;;;16.00;89.60;;;;;;5002398;28;19920;-74
2022/05/17 00:55:34;;;;;;;;;;;16.10;89.70;;;;;;5000170;28;19917;-74
2022/05/17 00:57:59;;;;;;;;;;;16.00;89.10;;;;;;5000135;28;19980;-74
2022/05/17 01:00:25;;;;;;;;;;;15.90;89.70;;;;;;4996285;28;19917;-74
2022/05/17 01:02:57;;;;;;;;;;;16.00;89.40;;;;;;5001195;28;19917;-74
2022/05/17 01:05:24;;;;;;;;;;;16.00;89.50;;;;;;5001173;28;19957;-74
2022/05/17 01:07:54;;;;;;;;;;;16.00;89.30;;;;;;5005427;28;19917;-74
2022/05/17 01:10:20;;;;;;;;;;;15.90;89.80;;;;;;4999153;28;19913;-74
2022/05/17 01:14:57;;;;;;;;;;;15.90;89.80;;;;;;5001479;28;20016;-74
2022/05/17 01:15:31;;;;;;;;;;;15.90;89.70;;;;;;4999260;28;20020;-74
2022/05/17 01:17:56;;;;;;;;;;;15.90;89.60;;;;;;5005511;28;20013;-74
2022/05/17 01:20:22;;;;;;;;;;;15.90;89.80;;;;;;4998286;28;20011;-73
2022/05/17 01:22:47;;;;;;;;;;;15.90;89.40;;;;;;5001444;28;19918;-74
2022/05/17 01:25:13;;;;;;;;;;;15.80;89.70;;;;;;5002978;28;19953;-74
2022/05/17 01:27:42;;;;;;;;;;;15.80;90.00;;;;;;5003563;28;19926;-74
2022/05/17 01:30:13;;;;;;;;;;;15.80;89.90;;;;;;5002130;28;20004;-74
2022/05/17 01:32:39;;;;;;;;;;;15.80;90.20;;;;;;5003224;28;19921;-74
2022/05/17 01:35:05;;;;;;;;;;;15.80;90.10;;;;;;5002496;28;19917;-74
2022/05/17 01:37:30;;;;;;;;;;;15.70;90.10;;;;;;5012152;28;19953;-74
2022/05/17 01:39:56;;;;;;;;;;;15.70;90.10;;;;;;5004492;28;19913;-74
2022/05/17 01:42:21;;;;;;;;;;;15.70;90.20;;;;;;5004991;28;19928;-74
2022/05/17 01:44:46;;;;;;;;;;;15.70;90.20;;;;;;5001195;28;19940;-74
2022/05/17 01:47:12;;;;;;;;;;;15.70;90.10;;;;;;5005872;28;19964;-74
2022/05/17 01:49:38;;;;;;;;;;;15.60;90.10;;;;;;5006487;28;19925;-74
2022/05/17 01:52:04;;;;;;;;;;;15.60;90.20;;;;;;5006763;28;20396;-74
2022/05/17 01:54:30;;;;;;;;;;;15.50;90.20;;;;;;5002169;28;19922;-74
2022/05/17 01:56:55;;;;;;;;;;;15.50;90.30;;;;;;5007894;28;19945;-74
2022/05/17 01:59:21;;;;;;;;;;;15.40;90.10;;;;;;4997296;28;20422;-74
2022/05/17 02:01:46;;;;;;;;;;;15.40;90.20;;;;;;4996372;28;19983;-74
2022/05/17 02:04:12;;;;;;;;;;;15.30;90.20;;;;;;5005523;28;19917;-74
2022/05/17 02:06:37;;;;;;;;;;;15.40;90.20;;;;;;5007259;28;19940;-74
2022/05/17 02:09:03;;;;;;;;;;;15.50;89.80;;;;;;5006392;28;19921;-74
2022/05/17 02:11:29;;;;;;;;;;;15.40;89.40;;;;;;5006030;28;19913;-74
2022/05/17 02:13:54;;;;;;;;;;;15.40;89.40;;;;;;5001654;28;20324;-74
2022/05/17 02:16:20;;;;;;;;;;;15.40;89.30;;;;;;5008001;28;19921;-74
2022/05/17 02:18:45;;;;;;;;;;;15.30;89.20;;;;;;5006430;28;19924;-74
2022/05/17 02:21:10;;;;;;;;;;;15.20;89.20;;;;;;5006269;28;19921;-74
2022/05/17 02:23:36;;;;;;;;;;;15.20;89.20;;;;;;5001031;28;20020;-74
2022/05/17 02:26:01;;;;;;;;;;;15.20;89.20;;;;;;5007425;28;19980;-74
2022/05/17 02:28:27;;;;;;;;;;;15.20;89.60;;;;;;4987976;28;19972;-74
2022/05/17 02:30:52;;;;;;;;;;;15.10;89.50;;;;;;5006315;28;20894;-73
2022/05/17 02:33:18;;;;;;;;;;;15.10;89.80;;;;;;4995179;28;19917;-73
2022/05/17 02:35:44;;;;;;;;;;;15.10;89.70;;;;;;5002991;28;19924;-74
2022/05/17 02:38:09;;;;;;;;;;;15.00;90.00;;;;;;5007931;28;19921;-73
2022/05/17 02:40:34;;;;;;;;;;;15.00;90.10;;;;;;5004998;28;19944;-73
2022/05/17 02:43:00;;;;;;;;;;;15.00;90.10;;;;;;5023485;28;19922;-74
2022/05/17 02:45:26;;;;;;;;;;;14.90;90.20;;;;;;5004593;28;19944;-74
2022/05/17 02:47:52;;;;;;;;;;;15.00;90.20;;;;;;5006408;28;19934;-74
2022/05/17 02:50:18;;;;;;;;;;;14.90;90.20;;;;;;5007067;28;19953;-74
2022/05/17 02:52:43;;;;;;;;;;;15.00;90.00;;;;;;4994845;28;19927;-74
2022/05/17 02:55:09;;;;;;;;;;;15.00;89.70;;;;;;5004494;28;19913;-73
2022/05/17 02:57:34;;;;;;;;;;;15.10;89.30;;;;;;5002134;28;19957;-73
2022/05/17 03:00:00;;;;;;;;;;;15.10;89.20;;;;;;5004628;28;20397;-74
2022/05/17 03:02:26;;;;;;;;;;;15.10;89.20;;;;;;5004828;28;19917;-74
2022/05/17 03:04:52;;;;;;;;;;;15.10;89.20;;;;;;4999903;28;19921;-74
2022/05/17 03:07:17;;;;;;;;;;;15.20;89.20;;;;;;4999069;28;20276;-74
2022/05/17 03:09:43;;;;;;;;;;;15.10;89.30;;;;;;5005913;28;20028;-74
2022/05/17 03:12:09;;;;;;;;;;;15.20;89.40;;;;;;5006454;28;19913;-74
2022/05/17 03:14:35;;;;;;;;;;;15.10;89.10;;;;;;5002341;28;20348;-74
2022/05/17 03:17:00;;;;;;;;;;;15.10;89.30;;;;;;5006700;28;19913;-74
2022/05/17 03:19:26;;;;;;;;;;;15.20;89.00;;;;;;5017855;28;20315;-74
2022/05/17 03:21:51;;;;;;;;;;;15.30;88.50;;;;;;5005749;28;19921;-74
2022/05/17 03:24:17;;;;;;;;;;;15.10;88.80;;;;;;4995367;28;20398;-74
2022/05/17 03:26:42;;;;;;;;;;;15.20;89.10;;;;;;5004169;28;19913;-74
2022/05/17 03:29:08;;;;;;;;;;;15.20;88.80;;;;;;5019830;28;19921;-74
2022/05/17 03:31:34;;;;;;;;;;;15.10;89.30;;;;;;5002968;28;19924;-74
2022/05/17 03:33:59;;;;;;;;;;;15.10;89.50;;;;;;5004618;28;19917;-74
2022/05/17 03:36:25;;;;;;;;;;;15.20;88.50;;;;;;5004124;28;19924;-74
2022/05/17 03:38:50;;;;;;;;;;;15.20;88.50;;;;;;5007468;28;19917;-74
2022/05/17 03:41:16;;;;;;;;;;;15.20;88.20;;;;;;5005724;28;19972;-74
2022/05/17 03:43:41;;;;;;;;;;;15.20;88.70;;;;;;4982066;28;20372;-74
2022/05/17 03:46:08;;;;;;;;;;;15.20;88.40;;;;;;4997411;28;19910;-74
2022/05/17 03:48:33;;;;;;;;;;;15.30;87.90;;;;;;5004983;28;19921;-74
2022/05/17 03:50:59;;;;;;;;;;;15.20;87.70;;;;;;5004138;28;19921;-74
2022/05/17 03:53:24;;;;;;;;;;;15.30;87.80;;;;;;5002793;28;19913;-74
2022/05/17 03:55:50;;;;;;;;;;;15.30;87.50;;;;;;5002651;28;19940;-74
2022/05/17 03:58:15;;;;;;;;;;;15.10;87.80;;;;;;5002229;28;19917;-74
2022/05/17 04:00:41;;;;;;;;;;;15.00;88.00;;;;;;5002185;28;19948;-74
2022/05/17 04:03:06;;;;;;;;;;;15.00;88.20;;;;;;5001637;28;20287;-74
2022/05/17 04:05:32;;;;;;;;;;;15.00;89.20;;;;;;4995823;28;20012;-74
2022/05/17 04:07:58;;;;;;;;;;;15.10;89.10;;;;;;5004739;28;19953;-74
2022/05/17 04:10:23;;;;;;;;;;;15.10;89.30;;;;;;5001131;28;19914;-74
2022/05/17 04:12:49;;;;;;;;;;;15.20;89.80;;;;;;5001281;28;20008;-75
2022/05/17 04:15:16;;;;;;;;;;;15.20;89.80;;;;;;5001662;28;19956;-74
2022/05/17 04:17:42;;;;;;;;;;;15.30;89.60;;;;;;5003780;28;19927;-75
2022/05/17 04:20:08;;;;;;;;;;;15.40;89.60;;;;;;5005370;28;19921;-76
2022/05/17 04:22:34;;;;;;;;;;;15.60;89.20;;;;;;5005874;28;19924;-74
2022/05/17 04:24:59;;;;;;;;;;;15.50;89.30;;;;;;5004411;28;19913;-75
2022/05/17 04:27:25;;;;;;;;;;;15.50;89.50;;;;;;5006210;28;20000;-75
2022/05/17 04:29:50;;;;;;;;;;;15.50;89.40;;;;;;5001919;28;19932;-75
2022/05/17 04:32:16;;;;;;;;;;;15.50;89.50;;;;;;5004632;28;19944;-75
2022/05/17 04:34:41;;;;;;;;;;;15.60;89.40;;;;;;5004331;28;19921;-75
2022/05/17 04:37:07;;;;;;;;;;;15.70;89.10;;;;;;5001305;28;19948;-76
2022/05/17 04:39:33;;;;;;;;;;;15.70;89.00;;;;;;5003297;28;19913;-75
2022/05/17 04:41:59;;;;;;;;;;;15.70;89.00;;;;;;5003857;28;19991;-74
2022/05/17 04:44:25;;;;;;;;;;;15.90;88.90;;;;;;5004758;28;20004;-74
2022/05/17 04:46:51;;;;;;;;;;;16.00;88.40;;;;;;5004264;28;20468;-75
2022/05/17 04:49:16;;;;;;;;;;;15.90;88.50;;;;;;5005506;28;19922;-76
2022/05/17 04:51:42;;;;;;;;;;;16.00;88.50;;;;;;5004188;28;19917;-76
2022/05/17 04:54:07;;;;;;;;;;;16.00;88.00;;;;;;5003365;28;21693;-76
2022/05/17 04:56:34;;;;;;;;;;;16.00;87.80;;;;;;5001209;28;19944;-76
2022/05/17 04:59:00;;;;;;;;;;;16.10;87.90;;;;;;5004740;28;19968;-76
2022/05/17 05:01:25;;;;;;;;;;;16.00;87.80;;;;;;5003968;28;19941;-76
2022/05/17 05:03:51;;;;;;;;;;;16.00;88.10;;;;;;5000156;28;19917;-76
2022/05/17 05:06:16;;;;;;;;;;;16.00;88.20;;;;;;5006711;28;19979;-75
2022/05/17 05:08:42;;;;;;;;;;;16.10;88.20;;;;;;5008023;28;19918;-78
2022/05/17 05:11:07;;;;;;;;;;;16.10;88.20;;;;;;4985959;28;19913;-75
2022/05/17 05:13:33;;;;;;;;;;;16.10;88.10;;;;;;5004936;28;20309;-75
2022/05/17 05:15:58;;;;;;;;;;;16.10;88.00;;;;;;4999078;28;19913;-75
2022/05/17 05:18:24;;;;;;;;;;;16.20;88.10;;;;;;5008223;28;19910;-75
2022/05/17 05:20:50;;;;;;;;;;;16.30;88.00;;;;;;4999642;28;19921;-75
2022/05/17 05:23:15;;;;;;;;;;;16.30;87.80;;;;;;5003964;28;20023;-75
2022/05/17 05:25:41;;;;;;;;;;;16.30;88.20;;;;;;5003741;28;20038;-76
2022/05/17 05:28:07;;;;;;;;;;;16.40;88.30;;;;;;4987407;28;19987;-76
2022/05/17 05:30:33;;;;;;;;;;;16.40;88.00;;;;;;4993643;28;19914;-75
2022/05/17 05:32:58;;;;;;;;;;;16.50;88.00;;;;;;5005744;28;19920;-75
2022/05/17 05:35:27;;;;;;;;;;;16.50;88.10;;;;;;5006485;28;20406;-76
2022/05/17 05:37:53;;;;;;;;;;;16.60;88.10;;;;;;5003096;28;19952;-76
2022/05/17 05:40:20;;;;;;;;;;;16.60;87.70;;;;;;5002200;28;19922;-76
2022/05/17 05:42:45;;;;;;;;;;;16.70;87.30;;;;;;5006072;28;19925;-76
2022/05/17 05:45:11;;;;;;;;;;;16.90;87.10;;;;;;5006389;28;19910;-76
2022/05/17 05:47:37;;;;;;;;;;;16.90;86.90;;;;;;4996076;28;19943;-76
2022/05/17 05:50:02;;;;;;;;;;;17.10;86.70;;;;;;4996480;28;19917;-76
2022/05/17 05:52:28;;;;;;;;;;;17.10;86.50;;;;;;5006584;28;19909;-76
2022/05/17 05:54:53;;;;;;;;;;;17.10;86.30;;;;;;4986003;28;19940;-75
2022/05/17 05:57:18;;;;;;;;;;;17.10;86.10;;;;;;5003299;28;19921;-75
2022/05/17 05:59:44;;;;;;;;;;;17.10;85.70;;;;;;4994945;28;19926;-75
2022/05/17 06:02:10;;;;;;;;;;;17.10;86.20;;;;;;4997380;28;19925;-76
2022/05/17 06:04:36;;;;;;;;;;;17.10;86.10;;;;;;4998326;28;19967;-76
2022/05/17 06:07:01;;;;;;;;;;;17.20;86.10;;;;;;4992494;28;19913;-75
2022/05/17 06:09:27;;;;;;;;;;;17.30;85.80;;;;;;4996442;28;19922;-76
2022/05/17 06:11:53;;;;;;;;;;;17.30;86.20;;;;;;5002951;28;19971;-75
2022/05/17 06:14:20;;;;;;;;;;;17.40;86.30;;;;;;4992786;28;20377;-75
2022/05/17 06:16:46;;;;;;;;;;;17.50;86.50;;;;;;5004665;28;19975;-74
2022/05/17 06:19:12;;;;;;;;;;;17.60;86.40;;;;;;5004314;28;19994;-76
2022/05/17 06:21:38;;;;;;;;;;;17.60;85.50;;;;;;4999104;28;20618;-77
2022/05/17 06:24:03;;;;;;;;;;;17.70;85.40;;;;;;5005868;28;19996;-77
2022/05/17 06:26:29;;;;;;;;;;;17.80;85.50;;;;;;5009944;28;19913;-76
2022/05/17 06:28:54;;;;;;;;;;;17.90;85.40;;;;;;5008153;28;20329;-77
2022/05/17 06:31:20;;;;;;;;;;;18.10;84.50;;;;;;5012918;28;19929;-78
2022/05/17 06:33:45;;;;;;;;;;;18.10;84.30;;;;;;5009148;28;19913;-78
2022/05/17 06:36:11;;;;;;;;;;;18.20;83.80;;;;;;5020691;28;20523;-78
2022/05/17 06:38:36;;;;;;;;;;;18.30;83.50;;;;;;5014493;28;19921;-77
2022/05/17 06:41:04;;;;;;;;;;;18.30;83.80;;;;;;5012557;28;19921;-77
2022/05/17 06:43:30;;;;;;;;;;;18.50;84.20;;;;;;5010367;28;19917;-78
2022/05/17 06:45:55;;;;;;;;;;;18.50;83.30;;;;;;5016382;28;20028;-78
2022/05/17 06:48:20;;;;;;;;;;;18.50;83.90;;;;;;5016569;28;19914;-78
2022/05/17 06:50:46;;;;;;;;;;;18.40;84.20;;;;;;5019464;28;19925;-78
2022/05/17 06:53:12;;;;;;;;;;;18.40;84.90;;;;;;5016580;28;20166;-79
2022/05/17 06:55:38;;;;;;;;;;;18.40;85.10;;;;;;5019954;28;20365;-79
2022/05/17 06:58:03;;;;;;;;;;;18.40;85.60;;;;;;5010122;28;19913;-78
2022/05/17 07:00:29;;;;;;;;;;;18.40;84.90;;;;;;5019283;28;19913;-78
2022/05/17 07:02:54;;;;;;;;;;;18.30;84.90;;;;;;5015478;28;19921;-78
2022/05/17 07:05:20;;;;;;;;;;;18.40;84.20;;;;;;5030485;28;19960;-78
2022/05/17 07:07:45;;;;;;;;;;;18.50;84.20;;;;;;5010844;28;19918;-77
2022/05/17 07:13:08;;;;;;;;;;;18.60;82.90;;;;;;5012407;28;20413;-77
2022/05/17 07:15:37;;;;;;;;;;;18.60;82.60;;;;;;5014030;28;19920;-77
2022/05/17 07:18:03;;;;;;;;;;;18.60;81.80;;;;;;5007054;28;19913;-78
2022/05/17 07:20:29;;;;;;;;;;;18.70;82.00;;;;;;5010096;28;19921;-78
2022/05/17 07:22:55;;;;;;;;;;;18.70;81.70;;;;;;5018798;28;19939;-78
2022/05/17 07:25:20;;;;;;;;;;;18.80;81.90;;;;;;5030401;28;20014;-79
2022/05/17 07:27:45;;;;;;;;;;;18.90;81.20;;;;;;5027459;28;20298;-78
2022/05/17 07:30:12;;;;;;;;;;;18.90;81.00;;;;;;5013527;28;19917;-78
2022/05/17 07:32:37;;;;;;;;;;;19.00;81.10;;;;;;5001119;28;20430;-77
2022/05/17 07:35:03;;;;;;;;;;;19.10;80.60;;;;;;4999883;28;19914;-78
2022/05/17 07:37:29;;;;;;;;;;;19.20;79.40;;;;;;5014604;28;19925;-78
2022/05/17 07:39:55;;;;;;;;;;;19.30;79.00;;;;;;5012947;28;20008;-78
2022/05/17 07:42:20;;;;;;;;;;;19.40;79.20;;;;;;5012553;28;19953;-79
2022/05/17 07:44:46;;;;;;;;;;;19.60;78.70;;;;;;5012858;28;19925;-80
2022/05/17 07:47:11;;;;;;;;;;;19.60;79.00;;;;;;5034336;28;20372;-78
2022/05/17 07:49:40;;;;;;;;;;;19.80;78.00;;;;;;5014581;28;20000;-79
2022/05/17 07:52:06;;;;;;;;;;;19.90;77.90;;;;;;5008083;28;19929;-79
2022/05/17 07:54:32;;;;;;;;;;;19.80;77.70;;;;;;4995099;28;19956;-77
2022/05/17 07:56:57;;;;;;;;;;;19.70;78.20;;;;;;4999261;28;19930;-77
2022/05/17 07:59:23;;;;;;;;;;;19.60;77.80;;;;;;5017608;28;19922;-77
2022/05/17 08:01:48;;;;;;;;;;;19.60;76.90;;;;;;5025019;28;20120;-78
2022/05/17 08:04:13;;;;;;;;;;;19.50;77.30;;;;;;5014187;28;19914;-77
2022/05/17 08:06:39;;;;;;;;;;;19.50;77.00;;;;;;5018066;28;19948;-77
2022/05/17 08:09:05;;;;;;;;;;;19.50;76.30;;;;;;5010706;28;20324;-77
2022/05/17 08:11:30;;;;;;;;;;;19.40;76.70;;;;;;5012104;28;19936;-77
2022/05/17 08:13:56;;;;;;;;;;;19.40;76.50;;;;;;4998357;28;20026;-78
2022/05/17 08:16:22;;;;;;;;;;;19.50;76.60;;;;;;5017464;28;19941;-78
2022/05/17 08:18:47;;;;;;;;;;;19.60;76.10;;;;;;5021589;28;19921;-78
2022/05/17 08:21:13;;;;;;;;;;;19.60;73.70;;;;;;5024614;28;19952;-81
2022/05/17 08:23:38;;;;;;;;;;;19.70;73.80;;;;;;5021295;28;19960;-77
2022/05/17 08:28:48;;;;;;;;;;;19.80;72.60;;;;;;5024668;28;19960;-80
2022/05/17 08:31:13;;;;;;;;;;;19.80;72.90;;;;;;5016610;28;19914;-77
2022/05/17 08:33:39;;;;;;;;;;;20.00;74.00;;;;;;5012853;28;20463;-80
2022/05/17 08:36:05;;;;;;;;;;;20.10;74.00;;;;;;5006160;28;19921;-82
2022/05/17 08:38:33;;;;;;;;;;;20.20;73.70;;;;;;5016278;28;20302;-83
2022/05/17 08:40:58;;;;;;;;;;;20.20;72.40;;;;;;5017945;28;19917;-82
2022/05/17 08:43:26;;;;;;;;;;;20.40;71.50;;;;;;5027871;28;20294;-84
2022/05/17 08:46:03;;;;;;;;;;;20.30;69.80;;;;;;5008727;28;19918;-82
2022/05/17 08:48:40;;;;;;;;;;;20.40;70.30;;;;;;5016557;28;20000;-83
2022/05/17 08:51:05;;;;;;;;;;;20.40;68.80;;;;;;5013923;28;20390;-81
2022/05/17 08:53:32;;;;;;;;;;;20.50;69.20;;;;;;5011222;28;19940;-82
2022/05/17 08:55:58;;;;;;;;;;;20.40;68.10;;;;;;5030549;28;19913;-80
2022/05/17 08:58:26;;;;;;;;;;;20.40;69.40;;;;;;5014919;28;19916;-80
2022/05/17 09:00:54;;;;;;;;;;;20.40;70.00;;;;;;5032081;28;19913;-80
2022/05/17 09:03:28;;;;;;;;;;;20.20;71.50;;;;;;5018566;28;19948;-80
2022/05/17 09:05:53;;;;;;;;;;;20.20;70.80;;;;;;5034787;28;19914;-79
2022/05/17 09:08:25;;;;;;;;;;;20.10;70.10;;;;;;5034055;28;19984;-81
2022/05/17 09:10:59;;;;;;;;;;;20.10;70.30;;;;;;5028765;28;20310;-79
2022/05/17 09:13:28;;;;;;;;;;;20.10;69.00;;;;;;5030004;28;19935;-80
2022/05/17 09:15:57;;;;;;;;;;;20.10;69.50;;;;;;5017251;28;19945;-82
2022/05/17 09:18:23;;;;;;;;;;;20.20;68.00;;;;;;5015411;28;19948;-79
2022/05/17 09:20:49;;;;;;;;;;;20.30;68.30;;;;;;5012974;28;19944;-83
2022/05/17 09:23:15;;;;;;;;;;;20.30;69.10;;;;;;5014765;28;19920;-79
2022/05/17 09:25:56;;;;;;;;;;;20.30;68.00;;;;;;5015102;28;19913;-79
2022/05/17 09:28:26;;;;;;;;;;;20.30;68.00;;;;;;5014557;28;19932;-80
2022/05/17 09:31:08;;;;;;;;;;;20.50;67.80;;;;;;5010816;28;19910;-82
2022/05/17 09:33:34;;;;;;;;;;;20.50;67.10;;;;;;5009056;28;20004;-79
2022/05/17 09:36:00;;;;;;;;;;;20.70;67.90;;;;;;5020789;28;19949;-80
2022/05/17 09:38:34;;;;;;;;;;;20.80;67.80;;;;;;5005056;28;20374;-83
2022/05/17 09:40:59;;;;;;;;;;;20.90;67.40;;;;;;4999806;28;19956;-81
2022/05/17 09:43:40;;;;;;;;;;;20.90;67.80;;;;;;5000932;28;19941;-80
2022/05/17 09:46:11;;;;;;;;;;;20.90;66.70;;;;;;5005398;28;20374;-80
2022/05/17 09:54:08;;;;;;;;;;;20.90;67.00;;;;;;5009813;28;19995;-81
2022/05/17 09:56:33;;;;;;;;;;;21.00;67.40;;;;;;4997936;28;19918;-81
2022/05/17 09:58:59;;;;;;;;;;;21.00;67.10;;;;;;4994573;28;20414;-81
2022/05/17 10:01:37;;;;;;;;;;;21.10;67.20;;;;;;5007596;28;19914;-81
2022/05/17 10:04:05;;;;;;;;;;;21.20;66.00;;;;;;5010561;28;20026;-81
2022/05/17 10:06:34;;;;;;;;;;;21.50;65.90;;;;;;5008855;28;19914;-80
2022/05/17 10:09:12;;;;;;;;;;;21.60;66.00;;;;;;5018017;28;19913;-84
2022/05/17 10:11:44;;;;;;;;;;;21.60;64.50;;;;;;5009872;28;20059;-81
2022/05/17 10:14:21;;;;;;;;;;;21.70;65.80;;;;;;5016107;28;19923;-82
2022/05/17 10:16:49;;;;;;;;;;;21.70;66.90;;;;;;5021311;28;19917;-82
2022/05/17 10:19:33;;;;;;;;;;;21.70;65.50;;;;;;5005490;28;19913;-83
2022/05/17 10:22:06;;;;;;;;;;;21.70;65.40;;;;;;5007840;28;21989;-83
2022/05/17 10:24:35;;;;;;;;;;;21.80;64.80;;;;;;4993636;28;19914;-81
2022/05/17 10:27:12;;;;;;;;;;;21.80;64.80;;;;;;5007673;28;19952;-80
2022/05/17 10:29:46;;;;;;;;;;;21.80;66.30;;;;;;5000220;28;19914;-80
2022/05/17 10:32:30;;;;;;;;;;;21.80;65.30;;;;;;5003540;28;19929;-80
2022/05/17 10:34:59;;;;;;;;;;;22.00;65.50;;;;;;5016505;28;19924;-80
2022/05/17 10:37:47;;;;;;;;;;;21.90;65.80;;;;;;5002896;28;19913;-80
2022/05/17 10:40:18;;;;;;;;;;;21.80;65.60;;;;;;4981301;28;19928;-79
2022/05/17 10:42:44;;;;;;;;;;;21.90;65.80;;;;;;5004102;28;19972;-79
2022/05/17 10:45:15;;;;;;;;;;;21.90;64.50;;;;;;5004496;28;19913;-80
2022/05/17 10:47:47;;;;;;;;;;;21.90;64.40;;;;;;5005694;28;19982;-80
2022/05/17 10:50:18;;;;;;;;;;;22.00;62.90;;;;;;5004031;28;19933;-79
2022/05/17 10:52:48;;;;;;;;;;;22.10;62.50;;;;;;5013972;28;19921;-79
2022/05/17 10:55:17;;;;;;;;;;;22.10;62.50;;;;;;5006037;28;20263;-80
2022/05/17 10:58:02;;;;;;;;;;;22.00;64.90;;;;;;5006830;28;20294;-79
2022/05/17 11:00:34;;;;;;;;;;;22.10;65.30;;;;;;5014513;28;19925;-79
2022/05/17 11:03:21;;;;;;;;;;;22.10;64.30;;;;;;5002754;28;19922;-79
2022/05/17 11:05:59;;;;;;;;;;;22.20;65.70;;;;;;5006734;28;20283;-79
2022/05/17 11:08:52;;;;;;;;;;;22.20;63.70;;;;;;5007462;28;20086;-79
2022/05/17 11:11:17;;;;;;;;;;;22.20;66.00;;;;;;5007472;28;20240;-79
2022/05/17 11:13:56;;;;;;;;;;;22.10;65.50;;;;;;5005254;28;19914;-78
2022/05/17 11:16:31;;;;;;;;;;;22.20;64.30;;;;;;5000714;28;19949;-75
2022/05/17 11:19:05;;;;;;;;;;;22.20;65.00;;;;;;5003691;28;20024;-77
2022/05/17 11:21:30;;;;;;;;;;;22.10;64.20;;;;;;5003290;28;19956;-78
2022/05/17 11:24:00;;;;;;;;;;;22.10;65.40;;;;;;5015220;28;19921;-80
2022/05/17 11:26:44;;;;;;;;;;;22.10;63.90;;;;;;5006828;28;19921;-80
2022/05/17 11:29:13;;;;;;;;;;;22.20;62.70;;;;;;5018777;28;19965;-80
2022/05/17 11:31:38;;;;;;;;;;;22.20;64.10;;;;;;5026858;28;20001;-80
2022/05/17 11:34:23;;;;;;;;;;;22.20;64.50;;;;;;5002152;28;19917;-78
2022/05/17 11:36:50;;;;;;;;;;;22.20;63.20;;;;;;5013047;28;19913;-79
2022/05/17 11:39:31;;;;;;;;;;;22.10;64.30;;;;;;5008459;28;19914;-81
2022/05/17 11:42:07;;;;;;;;;;;22.00;67.00;;;;;;5024820;28;20020;-80
2022/05/17 11:44:40;;;;;;;;;;;22.00;62.40;;;;;;5025702;28;19917;-80
2022/05/17 11:47:25;;;;;;;;;;;21.70;64.70;;;;;;5031597;28;19925;-81
2022/05/17 11:49:51;;;;;;;;;;;21.50;64.90;;;;;;5018530;28;19913;-79
2022/05/17 11:52:27;;;;;;;;;;;21.40;64.90;;;;;;5018347;28;19920;-79
2022/05/17 11:54:53;;;;;;;;;;;21.40;66.20;;;;;;5043603;28;19920;-80
2022/05/17 11:57:19;;;;;;;;;;;21.30;66.30;;;;;;5032270;28;19913;-81
2022/05/17 11:59:53;;;;;;;;;;;21.30;68.10;;;;;;5021992;28;19988;-80
2022/05/17 12:02:19;;;;;;;;;;;21.40;66.80;;;;;;5007623;28;19917;-80
2022/05/17 12:04:46;;;;;;;;;;;21.40;67.90;;;;;;5022424;28;19921;-80
2022/05/17 12:07:19;;;;;;;;;;;21.30;66.50;;;;;;5024179;28;19932;-80
2022/05/17 12:09:48;;;;;;;;;;;21.30;67.60;;;;;;5007989;28;20189;-80
2022/05/17 12:12:36;;;;;;;;;;;21.50;65.80;;;;;;5004242;28;19960;-80
2022/05/17 12:15:35;;;;;;;;;;;21.30;66.80;;;;;;5001915;28;19917;-79
2022/05/17 12:18:24;;;;;;;;;;;21.40;65.90;;;;;;4963174;28;19929;-78
2022/05/17 12:21:00;;;;;;;;;;;21.30;67.00;;;;;;5008205;28;19917;-78
2022/05/17 12:23:34;;;;;;;;;;;21.10;67.70;;;;;;5005205;28;20362;-78
2022/05/17 12:26:05;;;;;;;;;;;21.30;66.70;;;;;;5005394;28;19968;-78
2022/05/17 12:28:33;;;;;;;;;;;21.30;66.90;;;;;;5006242;28;19914;-80
2022/05/17 12:31:02;;;;;;;;;;;21.60;64.60;;;;;;5004485;28;19968;-79
2022/05/17 12:33:33;;;;;;;;;;;21.60;65.60;;;;;;5026453;28;19944;-79
2022/05/17 12:36:18;;;;;;;;;;;21.60;66.10;;;;;;5005918;28;19949;-78
2022/05/17 12:44:23;;;;;;;;;;;21.50;68.40;;;;;;5004688;28;19928;-79
2022/05/17 12:46:50;;;;;;;;;;;21.60;66.80;;;;;;4991472;28;19918;-78
2022/05/17 12:49:17;;;;;;;;;;;21.80;65.60;;;;;;5006802;28;19918;-79
2022/05/17 12:51:44;;;;;;;;;;;21.70;66.10;;;;;;5005639;28;19922;-79
2022/05/17 12:54:11;;;;;;;;;;;21.80;64.30;;;;;;5003804;28;19921;-78
2022/05/17 12:56:37;;;;;;;;;;;21.70;66.20;;;;;;5008934;28;19921;-79
2022/05/17 12:59:05;;;;;;;;;;;21.60;68.10;;;;;;5005897;28;20275;-78
2022/05/17 13:01:33;;;;;;;;;;;21.50;67.20;;;;;;4987646;28;19922;-78
2022/05/17 13:04:04;;;;;;;;;;;21.50;68.10;;;;;;5007494;28;19944;-78
2022/05/17 13:06:34;;;;;;;;;;;21.60;66.10;;;;;;5015417;28;19913;-78
2022/05/17 13:08:59;;;;;;;;;;;21.50;67.90;;;;;;5004519;28;19937;-78
2022/05/17 13:11:26;;;;;;;;;;;21.30;68.00;;;;;;5008602;28;20361;-78
2022/05/17 13:13:59;;;;;;;;;;;21.20;68.40;;;;;;4990923;28;19913;-78
2022/05/17 13:16:33;;;;;;;;;;;21.10;67.10;;;;;;4992564;28;20361;-77
2022/05/17 13:19:01;;;;;;;;;;;21.10;68.50;;;;;;5010176;28;19957;-78
2022/05/17 13:21:30;;;;;;;;;;;21.10;68.50;;;;;;5021110;28;19917;-78
2022/05/17 13:24:03;;;;;;;;;;;21.10;69.40;;;;;;5015434;28;19925;-78
2022/05/17 13:26:30;;;;;;;;;;;21.10;69.60;;;;;;5013027;28;19921;-78
2022/05/17 13:29:10;;;;;;;;;;;21.10;68.70;;;;;;5008741;28;19936;-78
2022/05/17 13:31:39;;;;;;;;;;;21.10;67.60;;;;;;5015214;28;19921;-78
2022/05/17 13:34:05;;;;;;;;;;;21.00;68.90;;;;;;5017012;28;19921;-78
2022/05/17 13:36:38;;;;;;;;;;;21.00;68.90;;;;;;5019551;28;20369;-78
2022/05/17 13:39:16;;;;;;;;;;;21.10;70.10;;;;;;5020603;28;19918;-78
2022/05/17 13:41:41;;;;;;;;;;;21.20;70.70;;;;;;5017712;28;19917;-78
2022/05/17 13:44:08;;;;;;;;;;;21.10;69.90;;;;;;5018084;28;20239;-78
2022/05/17 13:46:38;;;;;;;;;;;21.10;70.20;;;;;;4995761;28;19961;-79
2022/05/17 13:49:16;;;;;;;;;;;21.10;71.00;;;;;;5032897;23;20096;-80
2022/05/17 13:51:47;;;;;;;;;;;21.10;70.30;;;;;;5070678;22;20033;-88
2022/05/17 13:54:24;;;;;;;;;;;21.10;68.90;;;;;;4992850;28;19921;-82
2022/05/17 13:56:53;;;;;;;;;;;21.10;69.20;;;;;;4992778;28;19910;-84
2022/05/17 13:59:19;;;;;;;;;;;21.10;68.80;;;;;;4984535;28;19978;-83
2022/05/17 14:04:52;;;;;;;;;;;21.10;69.90;;;;;;4989762;28;20748;-84
2022/05/17 14:07:34;;;;;;;;;;;21.10;69.80;;;;;;5032758;28;19917;-86
2022/05/17 14:13:06;;;;;;;;;;;21.00;68.00;;;;;;4945604;28;19964;-85
2022/05/17 14:15:32;;;;;;;;;;;21.00;68.80;;;;;;4971095;28;19909;-85
2022/05/17 14:17:57;;;;;;;;;;;21.10;69.80;;;;;;4978098;28;19918;-84
2022/05/17 14:20:22;;;;;;;;;;;21.10;70.20;;;;;;4987750;28;19925;-84
2022/05/17 14:22:48;;;;;;;;;;;21.30;69.20;;;;;;4978633;28;19960;-84
2022/05/17 14:25:13;;;;;;;;;;;21.40;66.90;;;;;;4973066;28;19920;-84
2022/05/17 14:27:39;;;;;;;;;;;21.40;65.90;;;;;;4987843;28;20044;-84
2022/05/17 14:30:05;;;;;;;;;;;21.50;66.90;;;;;;4960441;28;19917;-86
2022/05/17 14:32:30;;;;;;;;;;;21.50;66.50;;;;;;4979500;28;20258;-85
2022/05/17 14:34:56;;;;;;;;;;;21.30;65.90;;;;;;4972267;28;20351;-84
2022/05/17 14:37:22;;;;;;;;;;;21.30;67.50;;;;;;4976184;28;19909;-84
2022/05/17 14:39:47;;;;;;;;;;;21.30;67.60;;;;;;4971282;28;20916;-84
2022/05/17 14:42:13;;;;;;;;;;;21.30;68.10;;;;;;4981485;28;20886;-84
2022/05/17 14:44:39;;;;;;;;;;;21.20;67.70;;;;;;4980961;28;20083;-84